Terminal Aerodrome Forecast
Issued by NWS

Home | Current Version | Previous Version | Text Only | Print | Product List | Glossary On
Versions: 1 2 3 4 5 6 7 8 9 10 11 12 13 14 15 16 17 18 19
000
FTUS46 KLOX 221412 AAB
TAFPRB
TAF AMD
KPRB 221412Z 2214/2312 31006KT P6SM VCSH OVC019
     FM221700 21008KT P6SM VCSH BKN025 OVC050
     FM222100 22015G20KT P6SM SCT035 BKN050
     FM230200 30012KT P6SM BKN050
     FM230700 30006KT P6SM OVC040=

USA.gov is the U.S. government's official web portal to all federal, state and local government web resources and services.